Dorcas, West Virginia
Current Conditions -  °F | °C
As of 7:55 PM on Saturday 25 Oct 2014 (Local Time) from KW99 Reporting Station
Clear Clear  
Wind Chill: 66°   Ceiling: Unl
Heat Index: 66°   Visibility: 10mi
Dew Point: 43°   Wind: 17mph
Humidity: 44%   Direction: 250°WSW
Pressure: 29.8"   Gusts: 24mph
Location:  38.9337°N, 79.1435°W
Report Text: KW99 252355Z AUTO 25015G21KT 10SM CLR 19/06 A2980 RMK AO2 T01870062 10221 20186
Loading
Personal Weather Stations






























Interactive Weather Map
Tropical Storm Tracking
New forecast layout! Learn more

10-Day Weather Forecast

Advertisements
Track Severe Weather on mobile